Time;durP1;ratioP1;P1;durP2;ratioP2;P2;SDS_P1;SDS_P2;PMS_P1;PMS_P2;Temp;Humidity;BMP_temperature;BMP_pressure;BME280_temperature;BME280_humidity;BME280_pressure;Samples;Min_cycle;Max_cycle;Signal;HPM_P1;HPM_P2
2024/03/29 00:03:55;;;;;;;3.63;1.48;;;;;;;7.03;59.08;98546.69;10414852;28;20041;-58
2024/03/29 00:08:55;;;;;;;2.92;0.75;;;;;;;6.97;59.51;98538.63;10415063;28;20045;-58
2024/03/29 00:13:55;;;;;;;1.73;0.50;;;;;;;6.88;59.13;98525.44;10391421;28;20045;-57
2024/03/29 00:18:56;;;;;;;1.23;0.30;;;;;;;6.84;59.42;98510.03;10410930;28;20174;-57
2024/03/29 00:23:56;;;;;;;2.40;0.75;;;;;;;6.74;59.09;98500.53;10410956;28;20041;-57
2024/03/29 00:28:57;;;;;;;2.50;0.60;;;;;;;6.69;60.02;98486.91;10406629;28;20106;-57
2024/03/29 00:33:57;;;;;;;1.02;0.30;;;;;;;6.63;60.55;98505.59;10409941;28;20434;-57
2024/03/29 00:38:58;;;;;;;2.13;0.68;;;;;;;6.71;60.18;98500.94;10409209;28;20653;-57
2024/03/29 00:43:58;;;;;;;1.70;0.50;;;;;;;6.81;59.79;98494.38;10412496;28;20041;-57
2024/03/29 00:48:59;;;;;;;2.40;0.95;;;;;;;6.86;60.22;98491.97;10400776;28;20119;-57
2024/03/29 00:53:59;;;;;;;2.17;0.77;;;;;;;6.90;60.38;98488.69;10403089;28;20049;-57
2024/03/29 00:59:00;;;;;;;4.18;0.90;;;;;;;6.97;59.97;98485.22;10407927;28;20102;-57
2024/03/29 01:04:00;;;;;;;2.70;1.00;;;;;;;7.07;59.81;98491.00;10411038;28;20049;-59
2024/03/29 01:09:01;;;;;;;1.33;0.73;;;;;;;7.12;60.33;98491.25;10408841;28;20044;-58
2024/03/29 01:14:01;;;;;;;2.53;0.80;;;;;;;7.18;59.75;98500.31;10403373;28;20037;-58
2024/03/29 01:19:02;;;;;;;4.07;0.75;;;;;;;7.19;60.61;98469.88;10412098;28;20522;-58
2024/03/29 01:24:04;;;;;;;1.73;0.65;;;;;;;7.12;60.59;98476.03;10412338;28;20044;-58
2024/03/29 01:29:06;;;;;;;5.60;0.47;;;;;;;7.11;60.69;98481.59;10410163;28;20049;-58
2024/03/29 01:34:06;;;;;;;3.83;0.55;;;;;;;7.24;60.99;98467.44;10412021;28;20095;-59
2024/03/29 01:39:08;;;;;;;3.17;0.50;;;;;;;7.48;60.29;98445.47;10408879;28;20073;-58
2024/03/29 01:44:09;;;;;;;3.17;0.60;;;;;;;7.62;60.99;98432.97;10407602;28;20124;-59
2024/03/29 01:49:09;;;;;;;3.45;0.30;;;;;;;7.61;60.89;98438.53;10405997;28;20169;-59
2024/03/29 01:54:11;;;;;;;2.38;0.40;;;;;;;7.75;60.45;98413.44;10405685;28;20534;-58
2024/03/29 01:59:15;;;;;;;1.38;0.60;;;;;;;7.76;61.41;98404.41;10406944;28;20099;-58
2024/03/29 02:04:17;;;;;;;2.22;0.50;;;;;;;7.78;60.94;98385.44;10385985;28;20045;-59
2024/03/29 02:09:17;;;;;;;6.22;0.80;;;;;;;7.94;60.61;98369.00;10411905;28;20060;-58
2024/03/29 02:14:18;;;;;;;0.55;0.30;;;;;;;7.98;60.57;98390.78;10405188;28;20380;-57
2024/03/29 02:19:18;;;;;;;4.30;0.52;;;;;;;7.90;61.44;98386.50;10409407;28;20045;-57
2024/03/29 02:24:19;;;;;;;2.60;0.50;;;;;;;8.01;61.48;98407.25;10406274;28;20350;-57
2024/03/29 02:29:19;;;;;;;2.80;0.60;;;;;;;8.18;60.87;98423.69;10402576;28;20494;-57
2024/03/29 02:34:20;;;;;;;1.20;0.40;;;;;;;8.19;60.97;98429.88;10402743;28;20734;-58
2024/03/29 02:39:20;;;;;;;2.67;0.40;;;;;;;8.34;60.57;98435.81;10412014;28;20045;-58
2024/03/29 02:44:20;;;;;;;1.48;0.93;;;;;;;8.10;61.06;98440.78;10407746;28;20037;-57
2024/03/29 02:49:21;;;;;;;3.05;0.40;;;;;;;8.23;61.29;98426.56;10412078;28;20049;-57
2024/03/29 02:54:22;;;;;;;2.55;0.47;;;;;;;8.36;61.39;98423.03;10412820;28;20044;-57
2024/03/29 02:59:23;;;;;;;2.22;0.40;;;;;;;8.51;60.99;98415.63;10413479;28;20037;-57
2024/03/29 03:04:23;;;;;;;0.90;0.40;;;;;;;8.62;60.42;98416.00;10409003;28;20503;-57
2024/03/29 03:14:43;;;;;;;2.58;0.32;;;;;;;8.71;60.75;98410.22;10409665;28;20052;-57
2024/03/29 03:19:43;;;;;;;4.75;0.35;;;;;;;8.81;60.44;98392.88;10412177;28;20056;-57
2024/03/29 03:24:44;;;;;;;3.85;0.40;;;;;;;8.75;60.84;98386.50;10412801;28;20099;-59
2024/03/29 03:29:44;;;;;;;1.00;0.40;;;;;;;8.70;61.03;98400.50;10415090;28;20060;-59
2024/03/29 03:34:45;;;;;;;5.85;0.40;;;;;;;8.64;61.47;98451.44;10409757;28;20376;-58
2024/03/29 03:39:45;;;;;;;1.30;0.30;;;;;;;8.71;61.76;98446.88;10415372;28;20047;-59
2024/03/29 03:44:46;;;;;;;1.10;0.35;;;;;;;8.79;61.24;98422.53;10403786;28;20034;-58
2024/03/29 03:49:46;;;;;;;0.98;0.30;;;;;;;8.91;61.13;98418.16;10412200;28;20047;-58
2024/03/29 03:54:47;;;;;;;2.70;0.40;;;;;;;9.02;61.25;98402.44;10411128;28;20092;-59
2024/03/29 03:59:49;;;;;;;2.05;0.40;;;;;;;8.81;61.88;98412.44;10390991;28;20049;-59
2024/03/29 04:04:50;;;;;;;0.88;0.30;;;;;;;8.92;61.85;98400.22;10413012;28;20041;-58
2024/03/29 04:09:51;;;;;;;2.85;0.40;;;;;;;8.91;61.72;98428.06;10412865;28;20041;-59
2024/03/29 04:14:52;;;;;;;3.08;0.50;;;;;;;9.04;61.86;98437.88;10414243;28;20049;-58
2024/03/29 04:19:52;;;;;;;2.25;0.45;;;;;;;9.00;61.99;98445.53;10406255;28;20037;-59
2024/03/29 04:24:53;;;;;;;2.10;0.50;;;;;;;9.06;62.54;98435.81;10408410;28;20045;-58
2024/03/29 04:29:54;;;;;;;3.45;1.42;;;;;;;9.04;62.60;98417.25;10408712;28;20071;-58
2024/03/29 04:34:55;;;;;;;1.90;0.40;;;;;;;8.90;63.16;98400.41;10390715;28;20049;-58
2024/03/29 04:39:55;;;;;;;2.50;0.47;;;;;;;8.63;63.92;98388.19;10407405;28;20037;-59
2024/03/29 04:44:56;;;;;;;2.47;0.52;;;;;;;8.76;63.87;98393.47;10405425;28;20099;-58
2024/03/29 04:49:56;;;;;;;1.55;0.40;;;;;;;8.62;64.58;98368.63;10404749;28;20430;-55
2024/03/29 04:54:57;;;;;;;1.13;0.40;;;;;;;8.77;64.36;98363.00;10413459;28;20468;-55
2024/03/29 04:59:57;;;;;;;2.30;0.40;;;;;;;8.59;64.81;98353.00;10406036;28;20049;-55
2024/03/29 05:04:58;;;;;;;5.50;0.50;;;;;;;8.60;65.52;98377.91;10407140;28;20041;-58
2024/03/29 05:10:00;;;;;;;3.13;0.80;;;;;;;8.83;64.91;98367.50;10396591;28;20053;-60
2024/03/29 05:15:00;;;;;;;3.67;0.47;;;;;;;8.70;65.26;98379.09;10397367;28;20103;-60
2024/03/29 05:20:00;;;;;;;3.95;0.40;;;;;;;8.67;65.88;98386.75;10405722;28;20565;-60
2024/03/29 05:25:01;;;;;;;1.33;0.43;;;;;;;8.58;66.03;98404.88;10407894;28;20123;-60
2024/03/29 05:30:03;;;;;;;3.08;0.60;;;;;;;8.60;66.29;98413.53;10405447;28;20462;-60
2024/03/29 05:35:03;;;;;;;2.90;0.50;;;;;;;8.55;66.67;98413.34;10405831;28;20779;-60
2024/03/29 05:40:05;;;;;;;3.55;0.70;;;;;;;8.56;67.04;98414.19;10403698;28;20045;-60
2024/03/29 05:45:22;;;;;;;4.28;0.50;;;;;;;8.41;67.80;98409.03;10406373;28;20045;-57
2024/03/29 05:50:24;;;;;;;3.73;0.50;;;;;;;8.45;68.16;98413.81;10402984;28;20049;-57
2024/03/29 05:55:24;;;;;;;3.42;0.88;;;;;;;8.60;68.26;98421.56;10392904;28;20049;-57
2024/03/29 06:00:25;;;;;;;3.42;0.93;;;;;;;8.57;68.73;98431.88;10406678;28;20045;-57
2024/03/29 06:05:26;;;;;;;4.68;0.73;;;;;;;8.53;69.16;98437.66;10408272;28;20045;-58
2024/03/29 06:10:26;;;;;;;9.07;1.00;;;;;;;8.76;69.00;98440.88;10411824;28;20136;-58
2024/03/29 06:20:47;;;;;;;3.65;0.60;;;;;;;8.87;69.50;98451.78;10421894;28;20076;-58
2024/03/29 06:25:47;;;;;;;3.67;0.60;;;;;;;8.95;69.75;98440.00;10407910;28;20067;-56
2024/03/29 06:30:48;;;;;;;5.78;1.13;;;;;;;8.98;69.83;98460.19;10407649;28;20381;-57
2024/03/29 06:35:55;;;;;;;3.08;1.00;;;;;;;9.06;69.72;98443.84;10409068;28;20046;-57
2024/03/29 06:40:55;;;;;;;3.88;0.65;;;;;;;9.22;69.72;98455.94;10412918;28;20499;-56
2024/03/29 06:45:57;;;;;;;4.13;0.82;;;;;;;9.35;69.77;98452.38;10390768;28;20041;-57
2024/03/29 06:51:00;;;;;;;2.42;0.90;;;;;;;9.46;69.87;98452.50;10410246;28;20159;-56
2024/03/29 06:56:01;;;;;;;7.30;1.00;;;;;;;9.47;70.30;98448.78;10407067;28;20103;-56
2024/03/29 07:01:02;;;;;;;5.45;0.93;;;;;;;9.67;70.11;98439.78;10407985;28;20087;-56
2024/03/29 07:06:03;;;;;;;3.20;0.63;;;;;;;9.75;70.65;98449.44;10401605;28;20489;-58
2024/03/29 07:11:04;;;;;;;4.07;0.70;;;;;;;9.86;70.55;98462.97;10404717;28;20046;-58
2024/03/29 07:16:04;;;;;;;3.92;1.88;;;;;;;9.84;71.07;98453.50;10401690;28;20060;-58
2024/03/29 07:21:05;;;;;;;3.67;1.20;;;;;;;9.93;71.12;98461.06;10401019;28;20096;-59
2024/03/29 07:26:05;;;;;;;5.03;1.30;;;;;;;9.99;71.27;98461.22;10413698;28;20029;-57
2024/03/29 07:31:07;;;;;;;4.97;1.42;;;;;;;9.96;71.86;98473.22;10413241;28;20041;-58
2024/03/29 07:36:10;;;;;;;3.78;0.80;;;;;;;9.90;71.61;98476.78;10410392;28;20041;-57
2024/03/29 07:41:11;;;;;;;2.58;0.85;;;;;;;9.61;72.65;98465.59;10421968;28;20045;-59
2024/03/29 07:46:11;;;;;;;3.72;0.50;;;;;;;9.45;73.14;98476.84;10408974;28;20052;-57
2024/03/29 07:51:12;;;;;;;2.60;1.00;;;;;;;9.56;72.90;98468.13;10414158;28;20514;-57
2024/03/29 07:56:12;;;;;;;3.40;1.00;;;;;;;9.57;73.88;98459.03;10411406;28;20119;-58
2024/03/29 08:01:23;;;;;;;6.35;1.05;;;;;;;9.82;73.13;98458.25;10394168;28;20049;-60
2024/03/29 08:06:23;;;;;;;3.10;1.05;;;;;;;9.93;73.20;98450.31;10413191;28;20053;-61
2024/03/29 08:11:24;;;;;;;2.65;0.82;;;;;;;10.06;72.88;98440.50;10411304;28;20049;-61
2024/03/29 08:16:25;;;;;;;3.58;1.13;;;;;;;10.15;72.97;98449.94;10413210;28;20112;-59
2024/03/29 08:21:28;;;;;;;5.18;1.67;;;;;;;10.29;73.07;98435.34;10407640;28;20118;-61
2024/03/29 08:26:29;;;;;;;4.97;1.20;;;;;;;10.47;72.99;98448.00;10407574;28;20053;-57
2024/03/29 08:31:29;;;;;;;6.95;1.23;;;;;;;10.64;72.96;98448.25;10400270;28;20439;-56
2024/03/29 08:36:30;;;;;;;1.92;1.10;;;;;;;10.84;72.55;98463.31;10408637;28;20052;-58
2024/03/29 08:41:31;;;;;;;4.15;1.45;;;;;;;10.80;73.02;98473.72;10406774;28;20088;-57
2024/03/29 08:46:31;;;;;;;1.70;1.10;;;;;;;10.62;73.99;98473.69;10409618;28;20049;-57
2024/03/29 08:51:32;;;;;;;4.18;1.75;;;;;;;10.58;74.05;98475.16;10406425;28;20407;-56
2024/03/29 08:56:34;;;;;;;7.13;2.65;;;;;;;10.57;74.47;98478.91;10403153;28;20045;-58
2024/03/29 09:01:50;;;;;;;2.55;0.73;;;;;;;10.34;75.18;98485.72;10410885;28;20041;-58
2024/03/29 09:06:50;;;;;;;3.55;1.35;;;;;;;10.45;74.94;98490.38;10412146;28;20044;-59
2024/03/29 09:11:51;;;;;;;8.23;1.25;;;;;;;10.50;75.14;98509.34;10408187;28;20384;-59
2024/03/29 09:16:52;;;;;;;6.60;1.52;;;;;;;10.67;74.72;98514.97;10403989;28;20041;-59
2024/03/29 09:21:52;;;;;;;5.90;1.50;;;;;;;10.70;75.21;98525.28;10404583;28;20060;-58
2024/03/29 09:26:53;;;;;;;3.95;1.33;;;;;;;10.82;74.89;98536.13;10407750;28;20043;-59
2024/03/29 09:31:53;;;;;;;2.80;0.88;;;;;;;10.62;75.58;98548.91;10398198;28;20067;-60
2024/03/29 09:36:54;;;;;;;6.97;1.42;;;;;;;10.93;75.08;98537.25;10387427;28;20037;-60
2024/03/29 09:41:58;;;;;;;3.80;1.20;;;;;;;11.35;74.60;98537.38;10408495;28;20041;-61
2024/03/29 09:47:03;;;;;;;3.25;1.20;;;;;;;11.35;74.69;98536.56;10411243;28;20056;-59
2024/03/29 09:52:05;;;;;;;5.70;1.15;;;;;;;11.42;75.30;98532.75;10406056;28;20052;-60
2024/03/29 09:57:05;;;;;;;8.23;1.25;;;;;;;11.75;74.45;98555.72;10404019;28;20052;-60
2024/03/29 10:02:16;;;;;;;3.13;0.98;;;;;;;12.12;74.09;98544.84;10404684;28;20045;-60
2024/03/29 10:07:17;;;;;;;2.45;0.70;;;;;;;12.41;74.06;98553.09;10407026;28;20648;-60
2024/03/29 10:12:18;;;;;;;2.60;0.75;;;;;;;12.31;74.04;98553.66;10405451;28;20115;-60
2024/03/29 10:17:19;;;;;;;1.20;0.60;;;;;;;12.43;74.06;98565.28;10390663;28;20073;-60
2024/03/29 10:22:19;;;;;;;4.63;0.88;;;;;;;12.80;73.60;98572.34;10404557;28;20045;-62
2024/03/29 10:27:20;;;;;;;4.70;1.75;;;;;;;12.82;73.82;98564.84;10405144;28;20683;-64
2024/03/29 10:32:22;;;;;;;2.25;0.80;;;;;;;12.92;73.49;98577.75;10400388;28;20045;-64
2024/03/29 10:37:27;;;;;;;3.72;1.23;;;;;;;12.87;73.55;98576.56;10410032;28;20443;-60
2024/03/29 10:42:28;;;;;;;4.25;1.55;;;;;;;13.08;73.29;98563.53;10403737;28;20059;-63
2024/03/29 10:47:30;;;;;;;4.05;1.17;;;;;;;12.99;73.78;98575.72;10408093;28;20439;-61
2024/03/29 10:52:31;;;;;;;3.90;0.90;;;;;;;13.16;73.37;98560.47;10410587;28;20186;-60
2024/03/29 10:57:36;;;;;;;1.80;0.60;;;;;;;13.23;73.40;98547.69;10384417;28;20053;-60
2024/03/29 11:02:56;;;;;;;0.57;0.40;;;;;;;13.20;73.54;98548.16;10410514;28;20052;-60
2024/03/29 11:07:58;;;;;;;1.88;0.52;;;;;;;13.07;73.64;98530.34;10408637;28;20052;-60
2024/03/29 11:13:11;;;;;;;4.10;0.40;;;;;;;13.13;73.36;98539.38;10418084;28;20041;-58
2024/03/29 11:18:13;;;;;;;1.45;0.82;;;;;;;13.13;73.09;98533.97;10408471;28;20049;-59
2024/03/29 11:23:15;;;;;;;5.20;1.02;;;;;;;13.17;73.28;98527.06;10415610;28;20049;-59
2024/03/29 11:28:23;;;;;;;3.70;0.52;;;;;;;13.12;72.91;98518.84;10411219;28;20096;-60
2024/03/29 11:33:30;;;;;;;1.80;0.60;;;;;;;13.04;72.95;98538.09;10414746;28;20049;-58
2024/03/29 11:38:35;;;;;;;0.95;0.50;;;;;;;12.99;72.56;98529.88;10393343;28;20053;-57
2024/03/29 11:43:37;;;;;;;2.65;0.50;;;;;;;12.92;72.97;98540.81;10395265;28;20048;-57
2024/03/29 11:48:39;;;;;;;1.65;0.80;;;;;;;12.76;72.88;98555.00;10398599;28;20040;-56
2024/03/29 11:53:40;;;;;;;5.13;0.75;;;;;;;12.67;73.26;98595.78;10416221;28;20094;-56
2024/03/29 11:58:41;;;;;;;7.35;1.35;;;;;;;12.39;73.47;98612.59;10404007;28;20234;-56
2024/03/29 12:03:43;;;;;;;2.92;0.95;;;;;;;11.96;74.75;98604.75;10413681;28;20063;-56
2024/03/29 12:08:55;;;;;;;1.83;0.88;;;;;;;11.68;75.32;98595.34;10408913;28;20395;-57
2024/03/29 12:13:58;;;;;;;2.88;0.70;;;;;;;11.68;74.99;98582.69;10414584;28;20053;-58
2024/03/29 12:18:59;;;;;;;3.60;0.77;;;;;;;11.80;75.28;98582.75;10416019;28;20040;-60
2024/03/29 12:23:59;;;;;;;1.98;1.08;;;;;;;11.79;75.62;98589.19;10410459;28;20049;-56
2024/03/29 12:29:00;;;;;;;1.85;1.15;;;;;;;11.85;75.36;98572.13;10410950;28;20044;-57
2024/03/29 12:34:01;;;;;;;3.38;1.80;;;;;;;11.90;75.07;98582.25;10405255;28;20041;-58
2024/03/29 12:39:03;;;;;;;2.38;1.90;;;;;;;12.13;75.46;98569.91;10395687;28;20131;-58
2024/03/29 12:44:03;;;;;;;8.52;4.25;;;;;;;12.35;75.33;98562.94;10408256;28;20047;-57
2024/03/29 12:49:04;;;;;;;3.60;1.65;;;;;;;12.43;75.39;98576.06;10401946;28;20049;-65
2024/03/29 12:54:05;;;;;;;3.58;1.40;;;;;;;12.27;75.97;98590.22;10407462;28;20110;-69
2024/03/29 12:59:06;;;;;;;4.93;1.55;;;;;;;12.25;76.18;98600.41;10409901;28;20041;-66
2024/03/29 13:04:07;;;;;;;3.15;2.20;;;;;;;12.25;76.52;98616.56;10408588;28;20052;-69
2024/03/29 13:09:07;;;;;;;7.20;2.15;;;;;;;12.25;76.31;98620.06;10390806;28;20045;-63
2024/03/29 13:14:28;;;;;;;8.63;1.95;;;;;;;12.01;77.22;98656.06;10402828;28;20060;-64
2024/03/29 13:19:29;;;;;;;5.38;2.08;;;;;;;12.09;77.68;98663.81;10411014;28;20252;-68
2024/03/29 13:24:29;;;;;;;8.45;2.72;;;;;;;12.26;77.13;98647.81;10407597;28;20053;-67
2024/03/29 13:29:30;;;;;;;4.38;2.67;;;;;;;12.59;76.75;98635.75;10401359;28;20068;-70
2024/03/29 13:34:30;;;;;;;4.38;2.63;;;;;;;12.69;76.89;98639.50;10412783;28;20098;-68
2024/03/29 13:39:31;;;;;;;7.97;2.72;;;;;;;12.82;76.63;98638.47;10414537;28;20049;-66
2024/03/29 13:44:34;;;;;;;7.13;2.53;;;;;;;12.82;77.01;98638.47;10403352;28;20038;-66
2024/03/29 13:49:34;;;;;;;5.45;2.47;;;;;;;12.81;77.04;98634.13;10405152;28;20094;-69
2024/03/29 13:54:36;;;;;;;8.38;2.53;;;;;;;13.05;76.48;98632.28;10408947;28;20055;-60
2024/03/29 13:59:37;;;;;;;4.72;2.72;;;;;;;13.19;76.51;98635.56;10389232;28;20049;-59
2024/03/29 14:04:38;;;;;;;5.80;3.38;;;;;;;13.42;76.43;98634.72;10407029;28;20041;-60
2024/03/29 14:09:39;;;;;;;4.30;3.13;;;;;;;13.52;76.63;98644.09;10403478;28;20049;-59
2024/03/29 14:14:41;;;;;;;7.45;2.22;;;;;;;13.58;76.76;98626.97;10407630;28;20040;-61
2024/03/29 14:19:42;;;;;;;5.63;2.58;;;;;;;13.59;77.12;98625.91;10418487;28;20068;-61
2024/03/29 14:24:42;;;;;;;5.90;3.05;;;;;;;13.79;76.96;98623.63;10405785;28;20502;-59
2024/03/29 14:29:44;;;;;;;6.85;3.30;;;;;;;14.00;76.71;98624.84;10386240;28;20095;-59
2024/03/29 14:34:46;;;;;;;5.22;3.03;;;;;;;14.12;76.79;98615.84;10405794;28;20068;-58
2024/03/29 14:39:47;;;;;;;7.40;3.42;;;;;;;14.13;76.73;98615.63;10416845;28;20044;-60
2024/03/29 14:44:48;;;;;;;6.43;2.70;;;;;;;14.25;76.66;98602.84;10413538;28;20372;-64
2024/03/29 14:49:49;;;;;;;3.90;2.65;;;;;;;14.38;76.89;98609.84;10415609;28;20045;-61
2024/03/29 14:54:49;;;;;;;3.95;1.58;;;;;;;14.46;76.98;98601.34;10415319;28;20531;-61
2024/03/29 14:59:50;;;;;;;3.92;1.77;;;;;;;14.59;76.97;98588.59;10413394;28;20056;-61
2024/03/29 15:04:50;;;;;;;4.82;1.08;;;;;;;14.72;77.02;98596.38;10412364;28;20061;-69
2024/03/29 15:09:51;;;;;;;3.88;1.83;;;;;;;14.63;77.26;98587.03;10410503;28;20044;-62
2024/03/29 15:14:52;;;;;;;4.80;0.82;;;;;;;14.74;76.77;98582.63;10415858;28;20359;-62
2024/03/29 15:19:52;;;;;;;1.15;0.40;;;;;;;14.65;76.66;98588.44;10414808;28;20053;-62
2024/03/29 15:24:53;;;;;;;1.77;0.80;;;;;;;14.69;76.66;98564.41;10392607;28;20099;-62
2024/03/29 15:29:55;;;;;;;2.92;0.70;;;;;;;14.71;76.24;98561.47;10411024;28;20044;-62
2024/03/29 15:34:55;;;;;;;3.22;0.60;;;;;;;14.66;76.32;98564.91;10405361;28;20039;-63
2024/03/29 15:39:56;;;;;;;2.05;0.60;;;;;;;14.60;76.32;98574.00;10405973;28;20046;-63
2024/03/29 15:44:57;;;;;;;3.35;0.60;;;;;;;14.60;76.52;98571.31;10413216;28;20098;-62
2024/03/29 15:49:57;;;;;;;1.92;0.50;;;;;;;14.50;76.18;98603.56;10412915;28;20128;-63
2024/03/29 15:54:58;;;;;;;17.58;7.72;;;;;;;14.30;76.37;98615.66;10390100;28;20108;-63
2024/03/29 15:59:58;;;;;;;4.10;0.60;;;;;;;14.27;76.58;98526.94;10396334;28;20291;-62
2024/03/29 16:04:59;;;;;;;1.50;0.50;;;;;;;14.22;76.40;98556.59;10405824;28;20044;-61
2024/03/29 16:10:01;;;;;;;2.67;0.68;;;;;;;14.21;76.54;98549.53;10410232;28;20127;-61
2024/03/29 16:15:02;;;;;;;2.42;0.85;;;;;;;14.19;76.87;98567.88;10409179;28;20048;-60
2024/03/29 16:20:02;;;;;;;1.70;0.80;;;;;;;14.06;77.03;98575.25;10407456;28;20629;-60
2024/03/29 16:25:03;;;;;;;1.45;0.73;;;;;;;13.96;77.10;98585.03;10404272;28;20033;-61
2024/03/29 16:30:04;;;;;;;2.08;0.82;;;;;;;13.96;77.10;98599.38;10408524;28;20041;-61
2024/03/29 16:35:05;;;;;;;3.47;0.77;;;;;;;13.94;76.96;98606.91;10407364;28;20052;-61
2024/03/29 16:40:06;;;;;;;3.55;0.50;;;;;;;13.83;76.97;98618.56;10409873;28;20419;-60
2024/03/29 16:45:07;;;;;;;1.00;0.40;;;;;;;13.74;77.03;98596.50;10410849;28;20052;-60
2024/03/29 16:50:08;;;;;;;0.75;0.30;;;;;;;13.68;77.12;98606.41;10396019;28;20534;-60
2024/03/29 16:55:10;;;;;;;0.55;0.30;;;;;;;13.64;77.12;98610.63;10406773;28;20045;-61
2024/03/29 17:00:11;;;;;;;0.70;0.50;;;;;;;13.59;76.74;98615.94;10390989;28;20049;-67
2024/03/29 17:05:11;;;;;;;0.50;0.30;;;;;;;13.58;76.92;98619.66;10413000;28;20048;-68
2024/03/29 17:10:12;;;;;;;2.58;0.30;;;;;;;13.55;76.93;98632.84;10408053;28;20511;-59
2024/03/29 17:15:12;;;;;;;1.30;0.40;;;;;;;13.66;76.84;98626.59;10411269;28;20065;-60
2024/03/29 17:20:13;;;;;;;0.80;0.40;;;;;;;13.65;76.73;98631.16;10412735;28;20095;-60
2024/03/29 17:25:14;;;;;;;2.35;0.57;;;;;;;13.69;76.48;98632.34;10404044;28;20416;-60
2024/03/29 17:30:15;;;;;;;1.08;0.70;;;;;;;13.73;76.38;98643.47;10405944;28;20091;-60
2024/03/29 17:35:15;;;;;;;4.45;1.60;;;;;;;13.73;76.44;98626.47;10408933;28;20053;-60
2024/03/29 17:40:16;;;;;;;8.40;1.80;;;;;;;13.74;76.18;98641.59;10406383;28;20056;-60
2024/03/29 17:45:17;;;;;;;5.55;3.78;;;;;;;13.66;76.02;98640.09;10411715;28;20044;-60
2024/03/29 17:50:17;;;;;;;4.25;2.35;;;;;;;13.65;76.18;98638.47;10403514;28;20131;-60
2024/03/29 17:55:18;;;;;;;12.32;6.28;;;;;;;13.52;76.42;98639.53;10405665;28;20377;-60
2024/03/29 18:00:18;;;;;;;9.18;5.32;;;;;;;13.25;76.92;98637.31;10388796;28;20060;-60
2024/03/29 18:05:19;;;;;;;15.88;5.00;;;;;;;13.20;76.92;98631.78;10400191;28;20064;-59
2024/03/29 18:10:20;;;;;;;5.93;3.78;;;;;;;13.07;76.64;98611.28;10389396;28;20048;-59
2024/03/29 18:15:20;;;;;;;6.15;3.10;;;;;;;12.98;76.96;98628.06;10402523;28;20063;-58
2024/03/29 18:20:21;;;;;;;9.20;4.03;;;;;;;12.87;76.65;98611.63;10408261;28;20045;-59
2024/03/29 18:25:21;;;;;;;10.63;7.57;;;;;;;12.60;76.92;98619.34;10401723;28;20038;-58
2024/03/29 18:36:19;;;;;;;7.15;3.63;;;;;;;12.34;77.20;98625.13;10404290;28;20057;-57
2024/03/29 18:41:22;;;;;;;7.22;3.58;;;;;;;12.34;77.12;98625.13;10403358;28;20118;-57
2024/03/29 18:46:23;;;;;;;15.90;7.85;;;;;;;12.25;77.06;98622.75;10399414;28;20079;-59
2024/03/29 18:51:23;;;;;;;9.82;5.65;;;;;;;12.12;76.92;98622.94;10407143;28;20502;-57
2024/03/29 18:56:25;;;;;;;11.85;4.72;;;;;;;12.05;77.20;98638.38;10404416;28;20128;-57
2024/03/29 19:01:26;;;;;;;11.10;6.80;;;;;;;11.99;76.98;98629.34;10384170;28;20380;-58
2024/03/29 19:06:30;;;;;;;15.98;8.25;;;;;;;11.89;76.82;98624.50;10407327;28;20064;-58
2024/03/29 19:11:32;;;;;;;12.25;5.30;;;;;;;11.82;76.78;98637.19;10406296;28;20052;-57
2024/03/29 19:16:32;;;;;;;12.98;5.35;;;;;;;11.76;76.78;98642.66;10399359;28;20067;-58
2024/03/29 19:21:34;;;;;;;8.55;4.50;;;;;;;11.65;76.87;98641.53;10427548;28;20084;-57
2024/03/29 19:26:35;;;;;;;7.80;5.47;;;;;;;11.55;76.44;98633.16;10407629;28;20120;-57
2024/03/29 19:31:38;;;;;;;9.38;5.45;;;;;;;11.49;76.48;98634.88;10410319;28;20060;-58
2024/03/29 19:36:38;;;;;;;18.08;8.57;;;;;;;11.40;76.46;98642.44;10407190;28;20041;-59
2024/03/29 19:41:39;;;;;;;12.88;8.18;;;;;;;11.21;77.37;98646.16;10412867;28;20045;-58
2024/03/29 19:46:40;;;;;;;15.18;7.90;;;;;;;11.23;77.48;98622.56;10413668;28;20504;-59
2024/03/29 19:51:40;;;;;;;15.73;9.68;;;;;;;11.25;77.28;98632.03;10413175;28;20102;-58
2024/03/29 19:56:40;;;;;;;21.05;12.68;;;;;;;11.18;76.83;98625.09;10389615;28;20484;-58
2024/03/29 20:01:41;;;;;;;27.88;14.07;;;;;;;11.04;76.91;98629.78;10407920;28;20388;-59
2024/03/29 20:06:41;;;;;;;19.58;11.27;;;;;;;10.95;77.33;98631.94;10411219;28;20467;-58
2024/03/29 20:11:42;;;;;;;19.35;10.35;;;;;;;11.02;76.83;98623.78;10403292;28;20092;-59
2024/03/29 20:16:46;;;;;;;20.27;10.52;;;;;;;11.02;77.30;98621.94;10409222;28;20070;-58
2024/03/29 20:21:46;;;;;;;20.88;10.93;;;;;;;10.86;77.20;98612.59;10416767;28;20068;-58
2024/03/29 20:26:47;;;;;;;20.27;10.48;;;;;;;10.85;77.68;98615.47;10406468;28;20073;-59
2024/03/29 20:31:47;;;;;;;20.50;10.68;;;;;;;10.74;77.62;98618.88;10398656;28;20053;-58
2024/03/29 20:36:48;;;;;;;22.13;10.43;;;;;;;10.81;77.55;98615.09;10407517;28;20128;-58
2024/03/29 20:41:48;;;;;;;15.88;10.13;;;;;;;10.85;77.65;98610.09;10409867;28;20095;-59
2024/03/29 20:46:49;;;;;;;18.70;10.75;;;;;;;10.77;77.00;98600.47;10410676;28;20601;-59
2024/03/29 20:51:50;;;;;;;14.52;8.00;;;;;;;10.69;78.07;98606.94;10408742;28;20510;-59
2024/03/29 20:56:50;;;;;;;21.05;10.88;;;;;;;10.71;77.74;98610.22;10407211;28;20048;-60
2024/03/29 21:07:10;;;;;;;17.27;10.27;;;;;;;10.69;77.97;98598.06;10399094;28;20136;-59
2024/03/29 21:12:12;;;;;;;16.77;9.82;;;;;;;10.68;78.03;98608.00;10403636;28;20051;-60
2024/03/29 21:17:13;;;;;;;23.90;11.20;;;;;;;10.75;77.45;98605.22;10401460;28;20111;-61
2024/03/29 21:22:13;;;;;;;18.65;9.60;;;;;;;10.80;77.28;98602.72;10406652;28;20099;-59
2024/03/29 21:27:14;;;;;;;18.10;10.27;;;;;;;10.68;77.50;98610.69;10405920;28;20124;-59
2024/03/29 21:32:15;;;;;;;20.80;11.52;;;;;;;10.67;77.83;98617.06;10409598;28;20406;-60
2024/03/29 21:37:15;;;;;;;17.40;11.02;;;;;;;10.65;77.76;98621.84;10405727;28;20049;-59
2024/03/29 21:42:18;;;;;;;17.42;10.10;;;;;;;10.58;78.14;98626.44;10410837;28;20053;-60
2024/03/29 21:47:18;;;;;;;20.00;10.25;;;;;;;10.68;77.79;98617.88;10404995;28;20052;-59
2024/03/29 21:52:20;;;;;;;17.98;9.05;;;;;;;10.71;77.37;98615.59;10388167;28;20562;-60
2024/03/29 21:57:20;;;;;;;18.58;9.50;;;;;;;10.69;77.15;98612.31;10402736;28;20045;-59
2024/03/29 22:02:21;;;;;;;15.75;9.30;;;;;;;10.62;77.51;98598.09;10404790;28;20061;-60
2024/03/29 22:07:21;;;;;;;16.10;8.63;;;;;;;10.54;77.42;98597.56;10406615;28;20081;-58
2024/03/29 22:12:22;;;;;;;19.02;8.73;;;;;;;10.53;77.45;98591.38;10407744;28;20060;-57
2024/03/29 22:17:23;;;;;;;17.02;8.02;;;;;;;10.57;77.55;98594.44;10405972;28;20044;-57
2024/03/29 22:22:23;;;;;;;21.40;8.52;;;;;;;10.49;77.35;98593.66;10406803;28;20437;-58
2024/03/29 22:27:24;;;;;;;16.77;8.00;;;;;;;10.34;78.13;98598.53;10400043;28;20037;-58
2024/03/29 22:32:24;;;;;;;15.85;8.48;;;;;;;10.38;77.44;98593.53;10404423;28;20141;-59
2024/03/29 22:37:25;;;;;;;14.27;8.23;;;;;;;10.30;77.70;98581.19;10381354;28;20169;-59
2024/03/29 22:42:25;;;;;;;21.25;9.30;;;;;;;10.34;77.60;98584.28;10375560;28;20527;-57
2024/03/29 22:47:26;;;;;;;19.45;8.55;;;;;;;10.15;78.11;98586.03;10377853;28;20548;-58
2024/03/29 22:52:27;;;;;;;16.23;7.60;;;;;;;10.22;77.49;98584.94;10383424;28;20125;-58
2024/03/29 22:57:27;;;;;;;15.52;8.20;;;;;;;10.20;77.44;98600.44;10389231;28;20096;-57
2024/03/29 23:02:28;;;;;;;14.98;7.45;;;;;;;10.11;77.81;98599.91;10388118;28;20745;-57
2024/03/29 23:07:28;;;;;;;11.73;7.32;;;;;;;10.16;77.70;98590.38;10386580;28;20497;-59
2024/03/29 23:12:29;;;;;;;21.77;11.13;;;;;;;10.12;77.98;98580.06;10390079;28;20654;-58
2024/03/29 23:17:29;;;;;;;16.48;11.40;;;;;;;10.19;77.42;98565.75;10388708;28;20516;-58
2024/03/29 23:22:30;;;;;;;19.58;8.82;;;;;;;10.02;78.10;98570.84;10394418;28;20056;-57
2024/03/29 23:27:31;;;;;;;17.02;8.77;;;;;;;10.11;78.06;98561.47;10387862;28;20046;-58
2024/03/29 23:32:31;;;;;;;19.83;8.48;;;;;;;10.18;77.37;98574.88;10386952;28;20045;-58
2024/03/29 23:37:32;;;;;;;15.48;7.55;;;;;;;10.21;77.24;98580.63;10389023;28;20045;-57
2024/03/29 23:42:32;;;;;;;17.65;7.03;;;;;;;10.22;77.57;98571.50;10386498;28;20688;-57
2024/03/29 23:47:33;;;;;;;15.02;6.65;;;;;;;10.22;76.98;98579.56;10387929;28;20048;-58